首页
METAR-TAF:

METAR-TAF

机场 :

Rock Springs - Sweetwater County Airport

Rock Springs, 怀俄明州, 美国

纬度: 41-35-39N, 经度: 109-03-55W, 海拔: 2060米

当前天气观测

该预报发布于28分钟前的06:54 UTC
风速17节,风向西,有时为24节阵风
温度 -3°C
湿度 86%
气压 1014 hPa
能見度: 9.7公里
阴天层高于4000英尺
小雪, 轻雾

METAR: KRKS 170654Z AUTO 27017G24KT 6SM -SN BR OVC040 M03/M05 A2993 RMK AO2 PK WND 26029/0615 SNB16 SLP153 P0000 T10331050 400171044

时间: 00:22 (07:22 UTC)

预报

该预报发布于2小时和2分钟前的05:20 UTC
预报有效从17日的 06点(UTC)到 18日的 06点(UTC)
风速20节,风向西,有时为30节阵风
能見度: 10公里
散云层高于4500英尺
阴天层高于11000英尺
从 17日的 1400点(UTC)
风速15节,风向西,有时为23节阵风
能見度: 10公里
少量云层高于12000英尺
从 17日的 2200点(UTC)
风速14节,风向西
能見度: 10公里
散云层高于20000英尺
从 18日的 0200点(UTC)
风速10节,风向西转西南
能見度: 10公里
散云层高于12000英尺

TAF: KRKS 170520Z 1706/1806 26020G30KT P6SM SCT045 OVC110 FM171400 26015G23KT P6SM FEW120 FM172200 27014KT P6SM SCT200 FM180200 25010KT P6SM SCT120

超过4000个机场的气象观测和天气预报(METAR&TAF报告)。

可查询的气象台以黄色和红色小点在地图上表示。

将鼠标移到小点上方,可查看气象台名称。

然后点击查看天气观测和预报。

如需切换地图:点击带黑十字的绿色按钮放大地图;点击带横线的绿色按钮缩小地图;或者点击绿色箭头查看邻近地区的地图。


METAR-TAF: